createdAt,value
2019-04-30T00:01:21.806Z,81.22
2019-04-30T00:04:05.784Z,81.93
2019-04-30T00:06:39.327Z,82.22
2019-04-30T00:09:09.736Z,82.13
2019-04-30T00:11:38.329Z,82.11
2019-04-30T00:14:07.773Z,82.93
2019-04-30T00:16:39.859Z,82.12
2019-04-30T00:19:10.669Z,81.86
2019-04-30T00:21:39.527Z,81.87
2019-04-30T00:24:10.266Z,81.65
2019-04-30T00:26:44.235Z,81.23
2019-04-30T00:29:11.176Z,80.72
2019-04-30T00:31:40.621Z,80.72
2019-04-30T00:34:10.062Z,80.09
2019-04-30T00:36:39.499Z,80.36
2019-04-30T00:39:13.284Z,79.79
2019-04-30T00:41:45.930Z,79.58
2019-04-30T00:44:11.801Z,79.39
2019-04-30T00:46:41.251Z,79.99
2019-04-30T00:49:16.053Z,79.42
2019-04-30T00:51:42.219Z,79.14
2019-04-30T00:54:11.654Z,78.98
2019-04-30T00:56:41.086Z,78.89
2019-04-30T00:59:10.736Z,78.49
2019-04-30T01:01:56.338Z,78.49
2019-04-30T01:04:44.879Z,78.53
2019-04-30T01:07:16.304Z,78.48
2019-04-30T01:09:49.451Z,78.32
2019-04-30T01:12:24.582Z,78.12
2019-04-30T01:14:49.662Z,77.54
2019-04-30T01:17:19.184Z,77.19
2019-04-30T01:19:51.140Z,77.45
2019-04-30T01:22:27.765Z,76.94
2019-04-30T01:24:51.163Z,77.12
2019-04-30T01:27:20.832Z,77.28
2019-04-30T01:29:50.456Z,77.07
2019-04-30T01:32:21.110Z,76.79
2019-04-30T01:34:53.780Z,76.73
2019-04-30T01:37:28.672Z,76.58
2019-04-30T01:39:53.031Z,76.55
2019-04-30T01:42:22.534Z,76.87
2019-04-30T01:44:53.903Z,77.06
2019-04-30T01:47:27.587Z,76.52
2019-04-30T01:49:55.790Z,77.27
2019-04-30T01:52:29.222Z,76.96
2019-04-30T01:54:58.654Z,78.38
2019-04-30T01:57:32.465Z,77.78
2019-04-30T02:00:01.676Z,77.31
2019-04-30T02:02:32.932Z,77.79
2019-04-30T02:05:02.400Z,78.16
2019-04-30T02:07:31.844Z,77.44
2019-04-30T02:10:01.337Z,76.79
2019-04-30T02:12:30.822Z,76.19
2019-04-30T02:15:00.274Z,75.71
2019-04-30T02:17:29.799Z,75.72
2019-04-30T02:19:59.475Z,75.48
2019-04-30T02:22:31.225Z,75.10
2019-04-30T02:25:00.209Z,75.15
2019-04-30T02:27:29.668Z,74.87
2019-04-30T02:30:02.532Z,75.07
2019-04-30T02:32:30.764Z,74.93
2019-04-30T02:35:09.563Z,74.86
2019-04-30T02:37:43.402Z,74.81
2019-04-30T02:40:11.755Z,74.77
2019-04-30T02:42:41.304Z,75.34
2019-04-30T02:45:11.633Z,76.08
2019-04-30T02:47:41.207Z,76.79
2019-04-30T02:50:18.091Z,76.72
2019-04-30T02:52:43.356Z,77.38
2019-04-30T02:55:19.443Z,78.04
2019-04-30T02:57:49.938Z,78.70
2019-04-30T03:00:20.800Z,78.83
2019-04-30T03:02:50.871Z,78.71
2019-04-30T03:05:20.508Z,79.22
2019-04-30T03:07:53.337Z,80.21
2019-04-30T03:10:21.158Z,81.09
2019-04-30T03:12:50.604Z,80.54
2019-04-30T03:15:22.937Z,80.12
2019-04-30T03:17:52.826Z,79.36
2019-04-30T03:20:34.751Z,79.57
2019-04-30T03:22:55.068Z,79.73
2019-04-30T03:25:24.511Z,79.57
2019-04-30T03:27:53.974Z,79.10
2019-04-30T03:30:23.397Z,79.31
2019-04-30T03:32:56.814Z,79.00
2019-04-30T03:35:24.017Z,78.95
2019-04-30T03:37:53.445Z,79.99
2019-04-30T03:40:22.897Z,79.75
2019-04-30T03:42:52.336Z,80.68
2019-04-30T03:45:21.778Z,80.51
2019-04-30T03:47:51.213Z,81.36
2019-04-30T03:50:20.874Z,81.32
2019-04-30T03:52:50.498Z,80.83
2019-04-30T03:55:20.586Z,81.39
2019-04-30T03:57:51.886Z,81.35
2019-04-30T04:00:42.485Z,81.20
2019-04-30T04:03:12.056Z,80.66
2019-04-30T04:05:43.126Z,80.66
2019-04-30T04:08:14.211Z,80.70
2019-04-30T04:10:52.976Z,80.43
2019-04-30T04:13:22.026Z,80.11
2019-04-30T04:15:51.457Z,80.42
2019-04-30T04:18:20.954Z,80.24
2019-04-30T04:21:06.508Z,80.31
2019-04-30T04:23:21.579Z,80.50
2019-04-30T04:25:51.004Z,79.78
2019-04-30T04:28:20.475Z,79.79
2019-04-30T04:30:50.561Z,79.10
2019-04-30T04:33:20.329Z,79.14
2019-04-30T04:35:51.377Z,78.68
2019-04-30T04:38:20.828Z,78.15
2019-04-30T04:40:50.493Z,78.11
2019-04-30T04:43:20.377Z,77.98
2019-04-30T04:45:50.222Z,78.08
2019-04-30T04:48:23.041Z,77.70
2019-04-30T04:50:50.895Z,77.47
2019-04-30T04:53:20.497Z,76.91
2019-04-30T04:55:50.182Z,77.08
2019-04-30T04:58:21.529Z,76.29
2019-04-30T05:00:50.810Z,75.94
2019-04-30T05:03:21.874Z,75.78
2019-04-30T05:05:51.311Z,75.45
2019-04-30T05:08:20.758Z,74.91
2019-04-30T05:10:50.198Z,74.21
2019-04-30T05:13:19.644Z,73.79
2019-04-30T05:15:51.550Z,73.38
2019-04-30T05:18:22.667Z,72.69
2019-04-30T05:20:51.446Z,72.71
2019-04-30T05:23:21.809Z,72.16
2019-04-30T05:25:51.487Z,71.48
2019-04-30T05:28:20.918Z,71.24
2019-04-30T05:30:50.364Z,71.28
2019-04-30T05:33:20.104Z,71.05
2019-04-30T05:35:49.688Z,70.67
2019-04-30T05:38:19.088Z,70.87
2019-04-30T05:40:49.596Z,70.14
2019-04-30T05:43:19.325Z,70.29
2019-04-30T05:45:49.338Z,70.18
2019-04-30T05:48:18.781Z,69.51
2019-04-30T05:50:51.454Z,69.47
2019-04-30T05:53:19.432Z,68.82
2019-04-30T05:55:49.350Z,68.79
2019-04-30T05:58:19.690Z,68.05
2019-04-30T06:00:49.959Z,67.19
2019-04-30T06:03:29.805Z,66.73
2019-04-30T06:05:50.798Z,66.41
2019-04-30T06:08:22.165Z,66.64
2019-04-30T06:10:56.047Z,66.31
2019-04-30T06:13:32.915Z,65.98
2019-04-30T06:16:08.771Z,65.62
2019-04-30T06:18:38.597Z,65.00
2019-04-30T06:21:09.166Z,65.24
2019-04-30T06:23:39.306Z,65.33
2019-04-30T06:26:12.234Z,64.09
2019-04-30T06:28:41.646Z,64.25
2019-04-30T06:31:11.212Z,64.70
2019-04-30T06:33:40.793Z,63.96
2019-04-30T06:36:11.180Z,63.54
2019-04-30T06:38:40.663Z,63.26
2019-04-30T06:41:10.099Z,63.28
2019-04-30T06:43:39.604Z,62.35
2019-04-30T06:46:09.057Z,63.12
2019-04-30T06:48:41.814Z,63.50
2019-04-30T06:51:10.504Z,62.41
2019-04-30T06:53:39.947Z,62.77
2019-04-30T06:56:09.394Z,62.96
2019-04-30T06:58:41.376Z,61.82
2019-04-30T07:01:10.030Z,61.67
2019-04-30T07:03:39.480Z,61.22
2019-04-30T07:06:08.916Z,61.49
2019-04-30T07:08:46.795Z,61.25
2019-04-30T07:11:24.336Z,61.22
2019-04-30T07:13:53.864Z,61.21
2019-04-30T07:16:23.327Z,61.05
2019-04-30T07:18:52.832Z,60.59
2019-04-30T07:21:22.350Z,60.90
2019-04-30T07:23:52.140Z,60.80
2019-04-30T07:26:24.486Z,59.79
2019-04-30T07:28:55.283Z,60.28
2019-04-30T07:31:23.979Z,59.82
2019-04-30T07:33:54.053Z,60.90
2019-04-30T07:36:23.571Z,60.60
2019-04-30T07:38:56.337Z,60.22
2019-04-30T07:41:24.418Z,60.68
2019-04-30T07:43:53.864Z,60.07
2019-04-30T07:46:23.303Z,58.20
2019-04-30T07:48:52.748Z,58.50
2019-04-30T07:51:22.922Z,58.16
2019-04-30T07:53:52.725Z,57.78
2019-04-30T07:56:27.944Z,57.27
2019-04-30T07:58:53.390Z,57.59
2019-04-30T08:01:22.845Z,57.41
2019-04-30T08:04:05.652Z,56.87
2019-04-30T08:06:35.150Z,57.08
2019-04-30T08:09:10.290Z,58.03
2019-04-30T08:11:43.315Z,57.95
2019-04-30T08:14:10.171Z,58.00
2019-04-30T08:16:39.610Z,57.55
2019-04-30T08:19:09.179Z,57.00
2019-04-30T08:21:38.851Z,58.20
2019-04-30T08:24:09.242Z,57.20
2019-04-30T08:26:39.743Z,57.15
2019-04-30T08:29:09.701Z,57.00
2019-04-30T08:31:40.877Z,56.73
2019-04-30T08:34:10.929Z,57.63
2019-04-30T08:36:40.520Z,57.25
2019-04-30T08:39:09.957Z,57.26
2019-04-30T08:41:39.413Z,56.69
2019-04-30T08:44:09.497Z,56.76
2019-04-30T08:46:38.915Z,57.09
2019-04-30T08:49:09.985Z,56.30
2019-04-30T08:51:40.386Z,56.90
2019-04-30T08:54:10.075Z,56.84
2019-04-30T08:56:39.655Z,56.04
2019-04-30T08:59:11.250Z,56.14
2019-04-30T09:01:40.396Z,56.80
2019-04-30T09:04:10.468Z,57.03
2019-04-30T09:06:40.163Z,57.54
2019-04-30T09:09:11.477Z,55.71
2019-04-30T09:11:51.856Z,55.56
2019-04-30T09:14:12.078Z,55.57
2019-04-30T09:16:41.531Z,55.01
2019-04-30T09:19:11.053Z,54.01
2019-04-30T09:21:40.476Z,53.96
2019-04-30T09:24:09.915Z,53.62
2019-04-30T09:26:39.363Z,54.28
2019-04-30T09:29:09.394Z,54.65
2019-04-30T09:31:40.843Z,55.51
2019-04-30T09:34:17.458Z,55.45
2019-04-30T09:36:41.158Z,54.40
2019-04-30T09:39:10.735Z,53.02
2019-04-30T09:41:41.192Z,54.79
2019-04-30T09:44:10.750Z,53.19
2019-04-30T09:46:40.181Z,51.85
2019-04-30T09:49:09.768Z,50.12
2019-04-30T09:51:39.983Z,50.90
2019-04-30T09:54:12.378Z,51.63
2019-04-30T09:56:40.962Z,50.07
2019-04-30T09:59:10.480Z,53.24
2019-04-30T10:01:39.913Z,50.53
2019-04-30T10:04:10.470Z,51.63
2019-04-30T10:06:40.462Z,51.68
2019-04-30T10:09:11.687Z,51.70
2019-04-30T10:11:45.552Z,52.10
2019-04-30T10:14:14.994Z,51.13
2019-04-30T10:16:44.221Z,51.95
2019-04-30T10:19:15.044Z,52.67
2019-04-30T10:21:44.494Z,51.94
2019-04-30T10:24:15.724Z,50.49
2019-04-30T10:26:45.104Z,50.12
2019-04-30T10:29:15.964Z,50.99
2019-04-30T10:31:45.728Z,51.21
2019-04-30T10:34:15.165Z,51.12
2019-04-30T10:36:44.620Z,51.41
2019-04-30T10:39:14.130Z,51.48
2019-04-30T10:41:43.575Z,51.53
2019-04-30T10:44:13.014Z,50.05
2019-04-30T10:46:42.546Z,52.21
2019-04-30T10:49:11.988Z,51.59
2019-04-30T10:51:41.422Z,50.57
2019-04-30T10:54:23.005Z,50.01
2019-04-30T10:56:42.029Z,50.83
2019-04-30T10:59:11.488Z,50.51
2019-04-30T11:01:40.928Z,48.99
2019-04-30T11:04:11.139Z,49.08
2019-04-30T11:06:40.596Z,47.44
2019-04-30T11:09:10.237Z,49.63
2019-04-30T11:11:39.826Z,49.42
2019-04-30T11:14:09.363Z,49.33
2019-04-30T11:16:38.963Z,48.02
2019-04-30T11:19:09.439Z,48.24
2019-04-30T11:21:39.211Z,47.58
2019-04-30T11:24:09.322Z,49.27
2019-04-30T11:26:40.288Z,48.98
2019-04-30T11:29:10.422Z,49.11
2019-04-30T11:31:57.030Z,49.67
2019-04-30T11:34:28.216Z,49.91
2019-04-30T11:36:57.810Z,48.96
2019-04-30T11:39:29.654Z,48.93
2019-04-30T11:41:58.714Z,49.24
2019-04-30T11:44:31.259Z,48.91
2019-04-30T11:47:15.796Z,47.97
2019-04-30T11:49:45.241Z,48.25
2019-04-30T11:52:14.743Z,48.39
2019-04-30T11:54:51.308Z,48.13
2019-04-30T11:57:15.421Z,48.35
2019-04-30T11:59:44.890Z,48.63
2019-04-30T12:02:22.931Z,48.20
2019-04-30T12:04:52.385Z,48.65
2019-04-30T12:07:33.524Z,48.98
2019-04-30T12:10:04.595Z,48.85
2019-04-30T12:12:34.029Z,48.09
2019-04-30T12:15:04.427Z,47.93
2019-04-30T12:17:33.857Z,48.36
2019-04-30T12:20:04.463Z,47.72
2019-04-30T12:22:33.917Z,47.65
2019-04-30T12:25:05.479Z,48.00
2019-04-30T12:27:35.035Z,47.13
2019-04-30T12:30:09.075Z,46.14
2019-04-30T12:32:39.290Z,47.10
2019-04-30T12:35:09.323Z,48.02
2019-04-30T12:37:39.146Z,45.83
2019-04-30T12:40:13.967Z,45.49
2019-04-30T12:42:40.474Z,44.90
2019-04-30T12:45:10.244Z,45.51
2019-04-30T12:47:41.369Z,44.39
2019-04-30T12:50:11.367Z,43.72
2019-04-30T12:52:51.365Z,43.27
2019-04-30T12:55:39.199Z,45.00
2019-04-30T12:58:09.790Z,43.76
2019-04-30T13:00:39.310Z,45.48
2019-04-30T13:03:08.764Z,45.72
2019-04-30T13:05:39.607Z,45.04
2019-04-30T13:08:10.027Z,45.35
2019-04-30T13:10:40.151Z,44.53
2019-04-30T13:13:10.395Z,42.33
2019-04-30T13:15:40.292Z,42.11
2019-04-30T13:18:09.723Z,41.52
2019-04-30T13:20:39.383Z,43.40
2019-04-30T13:23:08.895Z,41.18
2019-04-30T13:25:48.994Z,41.85
2019-04-30T13:28:14.041Z,42.65
2019-04-30T13:30:43.474Z,41.69
2019-04-30T13:33:15.771Z,39.36
2019-04-30T13:35:45.244Z,38.25
2019-04-30T13:38:22.043Z,36.65
2019-04-30T13:40:53.131Z,37.02
2019-04-30T13:43:40.269Z,35.44
2019-04-30T13:46:09.761Z,36.34
2019-04-30T13:48:39.201Z,36.47
2019-04-30T13:51:08.632Z,34.64
2019-04-30T13:53:39.508Z,32.98
2019-04-30T13:56:09.009Z,33.27
2019-04-30T13:58:38.445Z,34.72
2019-04-30T14:01:07.970Z,34.19
2019-04-30T14:03:42.042Z,32.95
2019-04-30T14:06:13.127Z,32.47
2019-04-30T14:08:48.721Z,31.83
2019-04-30T14:11:18.998Z,31.63
2019-04-30T14:13:48.526Z,33.69
2019-04-30T14:16:18.002Z,34.39
2019-04-30T14:18:48.769Z,32.62
2019-04-30T14:21:19.350Z,32.68
2019-04-30T14:23:49.538Z,32.74
2019-04-30T14:26:19.418Z,32.02
2019-04-30T14:28:49.003Z,32.26
2019-04-30T14:31:18.716Z,31.41
2019-04-30T14:33:49.552Z,30.64
2019-04-30T14:36:19.446Z,30.81
2019-04-30T14:38:48.990Z,29.07
2019-04-30T14:41:19.082Z,28.95
2019-04-30T14:43:51.201Z,29.40
2019-04-30T14:46:21.096Z,29.80
2019-04-30T14:48:55.831Z,31.09
2019-04-30T14:51:25.677Z,31.57
2019-04-30T14:53:54.893Z,30.81
2019-04-30T14:56:26.042Z,31.84
2019-04-30T14:59:13.349Z,31.91
2019-04-30T15:01:49.047Z,30.35
2019-04-30T15:04:20.339Z,29.69
2019-04-30T15:06:49.484Z,30.48
2019-04-30T15:09:19.021Z,31.32
2019-04-30T15:11:48.733Z,30.09
2019-04-30T15:14:18.149Z,30.14
2019-04-30T15:16:47.689Z,31.92
2019-04-30T15:19:17.119Z,31.44
2019-04-30T15:21:46.666Z,31.34
2019-04-30T15:24:16.436Z,31.15
2019-04-30T15:26:45.890Z,30.24
2019-04-30T15:29:16.200Z,30.90
2019-04-30T15:31:45.814Z,31.44
2019-04-30T15:34:15.338Z,32.25
2019-04-30T15:36:44.773Z,31.60
2019-04-30T15:39:14.071Z,34.02
2019-04-30T15:41:43.511Z,35.79
2019-04-30T15:44:12.958Z,34.01
2019-04-30T15:46:42.559Z,31.11
2019-04-30T15:49:12.106Z,31.15
2019-04-30T15:51:41.511Z,30.52
2019-04-30T15:54:11.036Z,29.64
2019-04-30T15:56:42.335Z,30.39
2019-04-30T15:59:16.223Z,32.27
2019-04-30T16:01:52.824Z,31.67
2019-04-30T16:04:30.526Z,31.11
2019-04-30T16:06:59.996Z,31.53
2019-04-30T16:09:34.083Z,31.66
2019-04-30T16:12:05.159Z,31.71
2019-04-30T16:14:36.248Z,32.76
2019-04-30T16:17:16.162Z,34.39
2019-04-30T16:19:45.596Z,32.98
2019-04-30T16:22:15.185Z,32.70
2019-04-30T16:24:44.620Z,32.02
2019-04-30T16:27:14.052Z,31.98
2019-04-30T16:29:43.505Z,32.99
2019-04-30T16:32:13.079Z,31.78
2019-04-30T16:34:42.538Z,31.36
2019-04-30T16:37:12.000Z,30.80
2019-04-30T16:39:41.446Z,30.67
2019-04-30T16:42:10.892Z,31.27
2019-04-30T16:44:40.395Z,30.80
2019-04-30T16:47:14.633Z,31.97
2019-04-30T16:49:41.037Z,31.44
2019-04-30T16:52:10.486Z,30.93
2019-04-30T16:54:39.927Z,32.18
2019-04-30T16:57:10.311Z,33.06
2019-04-30T16:59:41.513Z,33.13
2019-04-30T17:02:12.483Z,34.04
2019-04-30T17:04:41.685Z,35.29
2019-04-30T17:07:15.577Z,34.60
2019-04-30T17:10:02.759Z,34.48
2019-04-30T17:12:38.702Z,34.56
2019-04-30T17:15:22.211Z,35.78
2019-04-30T17:17:51.837Z,37.05
2019-04-30T17:20:21.360Z,37.59
2019-04-30T17:22:50.797Z,37.58
2019-04-30T17:25:20.232Z,36.86
2019-04-30T17:27:49.686Z,36.28
2019-04-30T17:30:19.747Z,36.39
2019-04-30T17:32:49.859Z,37.23
2019-04-30T17:35:19.520Z,37.07
2019-04-30T17:37:48.979Z,38.51
2019-04-30T17:40:19.723Z,39.67
2019-04-30T17:42:49.171Z,40.40
2019-04-30T17:45:19.841Z,40.95
2019-04-30T17:47:49.299Z,41.67
2019-04-30T17:50:18.928Z,42.35
2019-04-30T17:52:48.349Z,42.11
2019-04-30T17:55:19.515Z,43.19
2019-04-30T17:57:49.106Z,43.20
2019-04-30T18:00:22.178Z,44.22
2019-04-30T18:02:50.384Z,45.74
2019-04-30T18:05:19.837Z,46.82
2019-04-30T18:07:49.867Z,47.83
2019-04-30T18:10:20.204Z,48.74
2019-04-30T18:12:49.645Z,49.17
2019-04-30T18:15:27.570Z,49.84
2019-04-30T18:18:04.045Z,50.44
2019-04-30T18:20:39.185Z,50.27
2019-04-30T18:23:16.033Z,50.55
2019-04-30T18:25:47.110Z,51.28
2019-04-30T18:28:16.561Z,52.22
2019-04-30T18:30:46.016Z,52.11
2019-04-30T18:33:15.530Z,52.38
2019-04-30T18:35:44.978Z,52.33
2019-04-30T18:38:14.421Z,52.58
2019-04-30T18:40:43.853Z,52.78
2019-04-30T18:43:13.473Z,53.21
2019-04-30T18:45:42.966Z,54.37
2019-04-30T18:48:12.476Z,54.05
2019-04-30T18:50:42.005Z,54.24
2019-04-30T18:53:13.374Z,55.06
2019-04-30T18:55:42.800Z,55.36
2019-04-30T18:58:12.339Z,55.17
2019-04-30T19:00:43.410Z,54.78
2019-04-30T19:03:12.898Z,54.99
2019-04-30T19:05:43.989Z,55.04
2019-04-30T19:08:19.461Z,55.59
2019-04-30T19:11:06.188Z,55.66
2019-04-30T19:13:52.992Z,55.82
2019-04-30T19:16:31.358Z,55.76
2019-04-30T19:19:19.548Z,55.75
2019-04-30T19:21:49.241Z,55.77
2019-04-30T19:24:19.732Z,56.70
2019-04-30T19:26:49.243Z,57.38
2019-04-30T19:29:18.685Z,57.86
2019-04-30T19:31:49.465Z,57.08
2019-04-30T19:34:18.941Z,57.51
2019-04-30T19:36:49.269Z,57.60
2019-04-30T19:39:19.979Z,57.76
2019-04-30T19:41:49.420Z,57.65
2019-04-30T19:44:20.925Z,57.94
2019-04-30T19:46:50.461Z,58.05
2019-04-30T19:49:19.885Z,58.34
2019-04-30T19:51:49.574Z,58.94
2019-04-30T19:54:20.493Z,59.05
2019-04-30T19:56:50.252Z,59.19
2019-04-30T19:59:19.658Z,59.56
2019-04-30T20:01:49.115Z,59.79
2019-04-30T20:04:18.674Z,59.88
2019-04-30T20:06:48.728Z,60.21
2019-04-30T20:09:19.416Z,60.23
2019-04-30T20:11:49.322Z,60.16
2019-04-30T20:14:18.845Z,60.21
2019-04-30T20:16:48.678Z,61.05
2019-04-30T20:19:18.174Z,61.83
2019-04-30T20:21:51.376Z,62.59
2019-04-30T20:24:19.117Z,63.48
2019-04-30T20:26:51.639Z,64.06
2019-04-30T20:29:21.358Z,64.78
2019-04-30T20:31:50.819Z,64.58
2019-04-30T20:34:20.265Z,65.38
2019-04-30T20:36:49.717Z,65.43
2019-04-30T20:39:20.860Z,65.70
2019-04-30T20:41:51.167Z,65.92
2019-04-30T20:44:20.620Z,65.19
2019-04-30T20:46:50.051Z,65.52
2019-04-30T20:49:19.508Z,65.11
2019-04-30T20:51:55.660Z,64.60
2019-04-30T20:54:20.178Z,64.46
2019-04-30T20:56:50.994Z,64.53
2019-04-30T20:59:20.592Z,64.49
2019-04-30T21:01:50.045Z,64.48
2019-04-30T21:04:20.972Z,64.50
2019-04-30T21:06:50.582Z,64.84
2019-04-30T21:09:20.023Z,65.13
2019-04-30T21:11:49.451Z,65.00
2019-04-30T21:14:19.311Z,65.11
2019-04-30T21:16:48.822Z,65.31
2019-04-30T21:19:18.500Z,65.48
2019-04-30T21:21:49.734Z,65.93
2019-04-30T21:24:19.264Z,66.30
2019-04-30T21:26:48.703Z,66.48
2019-04-30T21:29:18.861Z,66.32
2019-04-30T21:31:52.979Z,66.35
2019-04-30T21:34:31.051Z,66.23
2019-04-30T21:37:00.544Z,66.20
2019-04-30T21:39:30.056Z,66.44
2019-04-30T21:41:59.553Z,66.41
2019-04-30T21:44:29.053Z,66.55
2019-04-30T21:46:58.579Z,66.69
2019-04-30T21:49:28.060Z,66.57
2019-04-30T21:51:57.492Z,66.60
2019-04-30T21:54:28.304Z,67.13
2019-04-30T21:56:58.105Z,67.75
2019-04-30T21:59:30.144Z,68.42
2019-04-30T22:01:58.813Z,68.29
2019-04-30T22:04:28.241Z,68.36
2019-04-30T22:06:59.527Z,69.28
2019-04-30T22:09:29.037Z,69.77
2019-04-30T22:11:59.219Z,69.77
2019-04-30T22:14:28.704Z,70.31
2019-04-30T22:16:59.430Z,70.15
2019-04-30T22:19:29.127Z,70.42
2019-04-30T22:21:59.456Z,70.32
2019-04-30T22:24:30.564Z,70.56
2019-04-30T22:27:00.082Z,70.82
2019-04-30T22:29:39.047Z,71.13
2019-04-30T22:32:00.790Z,71.06
2019-04-30T22:34:30.232Z,70.69
2019-04-30T22:36:59.680Z,70.54
2019-04-30T22:39:30.818Z,70.34
2019-04-30T22:42:29.597Z,70.08
2019-04-30T22:44:59.395Z,70.11
2019-04-30T22:47:28.969Z,70.96
2019-04-30T22:49:58.406Z,71.43
2019-04-30T22:52:27.923Z,71.81
2019-04-30T22:54:57.358Z,71.92
2019-04-30T22:57:26.781Z,72.02
2019-04-30T22:59:56.228Z,71.98
2019-04-30T23:02:45.174Z,72.13
2019-04-30T23:05:15.825Z,71.84
2019-04-30T23:07:45.262Z,73.10
2019-04-30T23:10:16.310Z,72.59
2019-04-30T23:12:46.033Z,73.86
2019-04-30T23:15:17.659Z,73.64
2019-04-30T23:17:47.105Z,73.58
2019-04-30T23:20:16.603Z,73.59
2019-04-30T23:22:46.100Z,73.14
2019-04-30T23:25:15.607Z,72.92
2019-04-30T23:27:45.035Z,73.16
2019-04-30T23:30:14.697Z,72.85
2019-04-30T23:32:44.358Z,72.51
2019-04-30T23:35:13.938Z,72.62
2019-04-30T23:37:43.471Z,72.75
2019-04-30T23:40:43.058Z,73.56
2019-04-30T23:43:12.506Z,74.49
2019-04-30T23:45:41.937Z,74.51
2019-04-30T23:48:11.377Z,74.52
2019-04-30T23:50:40.816Z,74.37
2019-04-30T23:53:10.549Z,74.35
2019-04-30T23:55:40.562Z,74.08
2019-04-30T23:58:10.060Z,73.85
